sensor_id;sensor_type;location;lat;lon;timestamp;P1;durP1;ratioP1;P2;durP2;ratioP2
20619;SDS011;10469;42.720;23.252;2022-12-18T00:02:10;12.38;;;9.23;;
20619;SDS011;10469;42.720;23.252;2022-12-18T00:04:36;12.80;;;9.68;;
20619;SDS011;10469;42.720;23.252;2022-12-18T00:07:01;12.10;;;9.27;;
20619;SDS011;10469;42.720;23.252;2022-12-18T00:09:26;13.80;;;10.23;;
20619;SDS011;10469;42.720;23.252;2022-12-18T00:11:52;13.95;;;9.32;;
20619;SDS011;10469;42.720;23.252;2022-12-18T00:14:17;12.10;;;9.10;;
20619;SDS011;10469;42.720;23.252;2022-12-18T00:16:44;12.82;;;9.45;;
20619;SDS011;10469;42.720;23.252;2022-12-18T00:19:10;13.25;;;9.85;;
20619;SDS011;10469;42.720;23.252;2022-12-18T00:21:35;12.55;;;10.18;;
20619;SDS011;10469;42.720;23.252;2022-12-18T00:24:01;15.80;;;10.95;;
20619;SDS011;10469;42.720;23.252;2022-12-18T00:26:27;15.10;;;10.55;;
20619;SDS011;10469;42.720;23.252;2022-12-18T00:28:57;14.30;;;10.68;;
20619;SDS011;10469;42.720;23.252;2022-12-18T00:31:28;13.10;;;9.68;;
20619;SDS011;10469;42.720;23.252;2022-12-18T00:33:54;12.35;;;9.60;;
20619;SDS011;10469;42.720;23.252;2022-12-18T00:36:21;12.15;;;9.40;;
20619;SDS011;10469;42.720;23.252;2022-12-18T00:38:49;12.85;;;9.90;;
20619;SDS011;10469;42.720;23.252;2022-12-18T00:41:15;13.43;;;9.95;;
20619;SDS011;10469;42.720;23.252;2022-12-18T00:44:01;13.27;;;10.80;;
20619;SDS011;10469;42.720;23.252;2022-12-18T00:46:27;12.93;;;9.82;;
20619;SDS011;10469;42.720;23.252;2022-12-18T00:48:53;15.52;;;10.45;;
20619;SDS011;10469;42.720;23.252;2022-12-18T00:51:18;14.40;;;9.65;;
20619;SDS011;10469;42.720;23.252;2022-12-18T00:53:43;15.13;;;10.15;;
20619;SDS011;10469;42.720;23.252;2022-12-18T00:56:09;13.13;;;9.95;;
20619;SDS011;10469;42.720;23.252;2022-12-18T00:58:34;14.85;;;10.40;;
20619;SDS011;10469;42.720;23.252;2022-12-18T01:01:00;13.02;;;10.10;;
20619;SDS011;10469;42.720;23.252;2022-12-18T01:03:25;15.18;;;10.55;;
20619;SDS011;10469;42.720;23.252;2022-12-18T01:05:51;14.07;;;10.50;;
20619;SDS011;10469;42.720;23.252;2022-12-18T01:08:16;14.55;;;10.55;;
20619;SDS011;10469;42.720;23.252;2022-12-18T01:10:41;16.50;;;11.82;;
20619;SDS011;10469;42.720;23.252;2022-12-18T01:13:07;14.25;;;11.02;;
20619;SDS011;10469;42.720;23.252;2022-12-18T01:15:32;16.90;;;11.93;;
20619;SDS011;10469;42.720;23.252;2022-12-18T01:17:58;16.30;;;11.70;;
20619;SDS011;10469;42.720;23.252;2022-12-18T01:20:23;15.57;;;12.10;;
20619;SDS011;10469;42.720;23.252;2022-12-18T01:22:49;19.35;;;12.65;;
20619;SDS011;10469;42.720;23.252;2022-12-18T01:25:14;17.55;;;12.57;;
20619;SDS011;10469;42.720;23.252;2022-12-18T01:27:40;18.05;;;12.50;;
20619;SDS011;10469;42.720;23.252;2022-12-18T01:30:05;15.60;;;11.07;;
20619;SDS011;10469;42.720;23.252;2022-12-18T01:32:31;18.05;;;12.85;;
20619;SDS011;10469;42.720;23.252;2022-12-18T01:34:57;16.83;;;12.23;;
20619;SDS011;10469;42.720;23.252;2022-12-18T01:37:22;18.48;;;12.48;;
20619;SDS011;10469;42.720;23.252;2022-12-18T01:39:48;17.15;;;11.63;;
20619;SDS011;10469;42.720;23.252;2022-12-18T01:42:15;15.70;;;10.77;;
20619;SDS011;10469;42.720;23.252;2022-12-18T01:44:54;15.50;;;11.25;;
20619;SDS011;10469;42.720;23.252;2022-12-18T01:47:46;20.10;;;11.57;;
20619;SDS011;10469;42.720;23.252;2022-12-18T01:50:14;16.30;;;11.73;;
20619;SDS011;10469;42.720;23.252;2022-12-18T01:52:49;16.02;;;10.68;;
20619;SDS011;10469;42.720;23.252;2022-12-18T01:55:18;15.18;;;11.02;;
20619;SDS011;10469;42.720;23.252;2022-12-18T01:57:46;14.85;;;10.73;;
20619;SDS011;10469;42.720;23.252;2022-12-18T02:00:13;12.68;;;10.00;;
20619;SDS011;10469;42.720;23.252;2022-12-18T02:02:42;14.02;;;9.80;;
20619;SDS011;10469;42.720;23.252;2022-12-18T02:05:09;13.70;;;9.82;;
20619;SDS011;10469;42.720;23.252;2022-12-18T02:07:51;14.75;;;11.05;;
20619;SDS011;10469;42.720;23.252;2022-12-18T02:13:27;15.88;;;10.95;;
20619;SDS011;10469;42.720;23.252;2022-12-18T02:18:19;12.35;;;8.70;;
20619;SDS011;10469;42.720;23.252;2022-12-18T02:21:09;12.55;;;8.85;;
20619;SDS011;10469;42.720;23.252;2022-12-18T02:32:20;16.98;;;10.60;;
20619;SDS011;10469;42.720;23.252;2022-12-18T02:34:50;13.40;;;9.68;;
20619;SDS011;10469;42.720;23.252;2022-12-18T02:37:18;14.85;;;9.90;;
20619;SDS011;10469;42.720;23.252;2022-12-18T02:39:46;12.98;;;10.35;;
20619;SDS011;10469;42.720;23.252;2022-12-18T02:42:13;14.95;;;10.45;;
20619;SDS011;10469;42.720;23.252;2022-12-18T02:44:45;16.17;;;10.23;;
20619;SDS011;10469;42.720;23.252;2022-12-18T02:47:13;15.38;;;10.02;;
20619;SDS011;10469;42.720;23.252;2022-12-18T02:52:18;14.40;;;10.50;;
20619;SDS011;10469;42.720;23.252;2022-12-18T03:05:59;15.80;;;10.95;;
20619;SDS011;10469;42.720;23.252;2022-12-18T03:08:32;15.00;;;10.82;;
20619;SDS011;10469;42.720;23.252;2022-12-18T03:11:12;15.02;;;10.02;;
20619;SDS011;10469;42.720;23.252;2022-12-18T03:16:17;13.38;;;9.65;;
20619;SDS011;10469;42.720;23.252;2022-12-18T03:18:50;15.35;;;9.95;;
20619;SDS011;10469;42.720;23.252;2022-12-18T03:21:21;14.77;;;10.70;;
20619;SDS011;10469;42.720;23.252;2022-12-18T03:23:51;13.98;;;10.00;;
20619;SDS011;10469;42.720;23.252;2022-12-18T03:26:19;12.90;;;8.95;;
20619;SDS011;10469;42.720;23.252;2022-12-18T03:28:55;12.68;;;9.30;;
20619;SDS011;10469;42.720;23.252;2022-12-18T03:31:24;11.10;;;8.60;;
20619;SDS011;10469;42.720;23.252;2022-12-18T03:34:04;13.07;;;8.82;;
20619;SDS011;10469;42.720;23.252;2022-12-18T03:36:34;13.38;;;8.68;;
20619;SDS011;10469;42.720;23.252;2022-12-18T03:38:59;12.45;;;9.50;;
20619;SDS011;10469;42.720;23.252;2022-12-18T03:44:02;15.10;;;10.18;;
20619;SDS011;10469;42.720;23.252;2022-12-18T03:46:51;14.05;;;9.88;;
20619;SDS011;10469;42.720;23.252;2022-12-18T03:49:28;14.27;;;10.90;;
20619;SDS011;10469;42.720;23.252;2022-12-18T03:52:23;15.70;;;10.20;;
20619;SDS011;10469;42.720;23.252;2022-12-18T03:54:54;15.15;;;10.70;;
20619;SDS011;10469;42.720;23.252;2022-12-18T03:57:23;18.05;;;10.95;;
20619;SDS011;10469;42.720;23.252;2022-12-18T03:59:52;16.80;;;11.63;;
20619;SDS011;10469;42.720;23.252;2022-12-18T04:02:21;13.98;;;11.00;;
20619;SDS011;10469;42.720;23.252;2022-12-18T04:04:48;14.93;;;10.50;;
20619;SDS011;10469;42.720;23.252;2022-12-18T04:07:18;18.52;;;11.18;;
20619;SDS011;10469;42.720;23.252;2022-12-18T04:09:45;14.77;;;10.55;;
20619;SDS011;10469;42.720;23.252;2022-12-18T04:12:11;18.65;;;11.43;;
20619;SDS011;10469;42.720;23.252;2022-12-18T04:14:36;16.15;;;11.45;;
20619;SDS011;10469;42.720;23.252;2022-12-18T04:17:02;18.67;;;12.35;;
20619;SDS011;10469;42.720;23.252;2022-12-18T04:19:28;22.02;;;13.75;;
20619;SDS011;10469;42.720;23.252;2022-12-18T04:21:54;19.83;;;13.93;;
20619;SDS011;10469;42.720;23.252;2022-12-18T04:24:19;23.27;;;13.10;;
20619;SDS011;10469;42.720;23.252;2022-12-18T04:26:44;19.02;;;13.10;;
20619;SDS011;10469;42.720;23.252;2022-12-18T04:29:10;20.38;;;13.38;;
20619;SDS011;10469;42.720;23.252;2022-12-18T04:31:35;20.42;;;13.88;;
20619;SDS011;10469;42.720;23.252;2022-12-18T04:34:01;22.42;;;15.07;;
20619;SDS011;10469;42.720;23.252;2022-12-18T04:36:27;24.27;;;13.85;;
20619;SDS011;10469;42.720;23.252;2022-12-18T04:38:52;21.70;;;13.98;;
20619;SDS011;10469;42.720;23.252;2022-12-18T04:41:18;19.63;;;13.27;;
20619;SDS011;10469;42.720;23.252;2022-12-18T04:43:43;19.23;;;13.32;;
20619;SDS011;10469;42.720;23.252;2022-12-18T04:46:09;19.08;;;13.27;;
20619;SDS011;10469;42.720;23.252;2022-12-18T04:48:34;24.05;;;14.07;;
20619;SDS011;10469;42.720;23.252;2022-12-18T04:51:00;23.50;;;13.82;;
20619;SDS011;10469;42.720;23.252;2022-12-18T04:53:26;22.27;;;14.35;;
20619;SDS011;10469;42.720;23.252;2022-12-18T04:56:02;22.77;;;15.20;;
20619;SDS011;10469;42.720;23.252;2022-12-18T04:58:31;23.67;;;15.32;;
20619;SDS011;10469;42.720;23.252;2022-12-18T05:00:57;23.80;;;14.73;;
20619;SDS011;10469;42.720;23.252;2022-12-18T05:03:22;22.83;;;15.07;;
20619;SDS011;10469;42.720;23.252;2022-12-18T05:05:51;26.45;;;15.20;;
20619;SDS011;10469;42.720;23.252;2022-12-18T05:08:16;23.08;;;14.40;;
20619;SDS011;10469;42.720;23.252;2022-12-18T05:10:42;28.17;;;15.73;;
20619;SDS011;10469;42.720;23.252;2022-12-18T05:13:08;22.27;;;14.65;;
20619;SDS011;10469;42.720;23.252;2022-12-18T05:15:34;23.95;;;15.15;;
20619;SDS011;10469;42.720;23.252;2022-12-18T05:17:59;21.52;;;14.40;;
20619;SDS011;10469;42.720;23.252;2022-12-18T05:20:26;26.27;;;16.60;;
20619;SDS011;10469;42.720;23.252;2022-12-18T05:22:52;24.85;;;15.52;;
20619;SDS011;10469;42.720;23.252;2022-12-18T05:25:18;23.80;;;14.00;;
20619;SDS011;10469;42.720;23.252;2022-12-18T05:27:44;25.58;;;15.50;;
20619;SDS011;10469;42.720;23.252;2022-12-18T05:30:10;24.50;;;14.20;;
20619;SDS011;10469;42.720;23.252;2022-12-18T05:32:36;25.45;;;14.82;;
20619;SDS011;10469;42.720;23.252;2022-12-18T05:35:02;28.50;;;15.50;;
20619;SDS011;10469;42.720;23.252;2022-12-18T05:37:28;24.75;;;15.02;;
20619;SDS011;10469;42.720;23.252;2022-12-18T05:39:54;23.73;;;14.70;;
20619;SDS011;10469;42.720;23.252;2022-12-18T05:42:19;24.90;;;15.95;;
20619;SDS011;10469;42.720;23.252;2022-12-18T05:44:44;25.90;;;16.20;;
20619;SDS011;10469;42.720;23.252;2022-12-18T05:47:10;30.55;;;16.58;;
20619;SDS011;10469;42.720;23.252;2022-12-18T05:49:35;27.95;;;14.98;;
20619;SDS011;10469;42.720;23.252;2022-12-18T05:52:01;23.95;;;15.70;;
20619;SDS011;10469;42.720;23.252;2022-12-18T05:54:27;26.33;;;16.10;;
20619;SDS011;10469;42.720;23.252;2022-12-18T05:56:53;25.40;;;15.18;;
20619;SDS011;10469;42.720;23.252;2022-12-18T05:59:18;24.00;;;15.43;;
20619;SDS011;10469;42.720;23.252;2022-12-18T06:01:44;24.92;;;16.90;;
20619;SDS011;10469;42.720;23.252;2022-12-18T06:04:10;25.63;;;15.40;;
20619;SDS011;10469;42.720;23.252;2022-12-18T06:06:35;23.35;;;15.35;;
20619;SDS011;10469;42.720;23.252;2022-12-18T06:09:01;26.15;;;16.20;;
20619;SDS011;10469;42.720;23.252;2022-12-18T06:11:33;24.88;;;15.60;;
20619;SDS011;10469;42.720;23.252;2022-12-18T06:14:00;25.75;;;16.27;;
20619;SDS011;10469;42.720;23.252;2022-12-18T06:16:29;23.52;;;14.68;;
20619;SDS011;10469;42.720;23.252;2022-12-18T06:18:56;23.52;;;14.88;;
20619;SDS011;10469;42.720;23.252;2022-12-18T06:21:22;25.88;;;16.00;;
20619;SDS011;10469;42.720;23.252;2022-12-18T06:23:48;24.20;;;15.23;;
20619;SDS011;10469;42.720;23.252;2022-12-18T06:26:13;24.00;;;16.27;;
20619;SDS011;10469;42.720;23.252;2022-12-18T06:28:39;23.17;;;16.25;;
20619;SDS011;10469;42.720;23.252;2022-12-18T06:31:05;26.13;;;16.52;;
20619;SDS011;10469;42.720;23.252;2022-12-18T06:33:32;21.40;;;14.63;;
20619;SDS011;10469;42.720;23.252;2022-12-18T06:36:08;22.63;;;15.30;;
20619;SDS011;10469;42.720;23.252;2022-12-18T06:38:36;23.20;;;14.25;;
20619;SDS011;10469;42.720;23.252;2022-12-18T06:41:09;24.13;;;15.00;;
20619;SDS011;10469;42.720;23.252;2022-12-18T06:43:36;22.08;;;14.60;;
20619;SDS011;10469;42.720;23.252;2022-12-18T06:46:02;21.33;;;14.15;;
20619;SDS011;10469;42.720;23.252;2022-12-18T06:48:28;20.70;;;13.50;;
20619;SDS011;10469;42.720;23.252;2022-12-18T06:50:54;23.20;;;14.60;;
20619;SDS011;10469;42.720;23.252;2022-12-18T06:53:19;20.13;;;12.50;;
20619;SDS011;10469;42.720;23.252;2022-12-18T06:55:45;21.67;;;14.43;;
20619;SDS011;10469;42.720;23.252;2022-12-18T06:58:10;22.77;;;15.30;;
20619;SDS011;10469;42.720;23.252;2022-12-18T07:00:35;22.15;;;14.57;;
20619;SDS011;10469;42.720;23.252;2022-12-18T07:03:01;25.55;;;15.38;;
20619;SDS011;10469;42.720;23.252;2022-12-18T07:05:26;24.63;;;15.60;;
20619;SDS011;10469;42.720;23.252;2022-12-18T07:07:52;25.50;;;16.80;;
20619;SDS011;10469;42.720;23.252;2022-12-18T07:10:17;27.83;;;16.75;;
20619;SDS011;10469;42.720;23.252;2022-12-18T07:12:43;25.80;;;15.77;;
20619;SDS011;10469;42.720;23.252;2022-12-18T07:15:08;30.42;;;17.98;;
20619;SDS011;10469;42.720;23.252;2022-12-18T07:17:34;27.85;;;17.88;;
20619;SDS011;10469;42.720;23.252;2022-12-18T07:19:59;28.02;;;17.98;;
20619;SDS011;10469;42.720;23.252;2022-12-18T07:22:25;28.55;;;18.05;;
20619;SDS011;10469;42.720;23.252;2022-12-18T10:26:16;21.35;;;13.50;;
20619;SDS011;10469;42.720;23.252;2022-12-18T10:28:42;20.88;;;12.98;;
20619;SDS011;10469;42.720;23.252;2022-12-18T10:31:20;23.15;;;14.15;;
20619;SDS011;10469;42.720;23.252;2022-12-18T10:33:47;23.65;;;13.38;;
20619;SDS011;10469;42.720;23.252;2022-12-18T10:36:13;22.05;;;13.45;;
20619;SDS011;10469;42.720;23.252;2022-12-18T10:38:38;23.42;;;14.57;;
20619;SDS011;10469;42.720;23.252;2022-12-18T10:43:47;19.30;;;13.00;;
20619;SDS011;10469;42.720;23.252;2022-12-18T10:46:16;23.52;;;13.90;;
20619;SDS011;10469;42.720;23.252;2022-12-18T10:51:20;24.02;;;14.10;;
20619;SDS011;10469;42.720;23.252;2022-12-18T10:53:50;20.52;;;12.07;;
20619;SDS011;10469;42.720;23.252;2022-12-18T10:56:19;21.80;;;12.15;;
20619;SDS011;10469;42.720;23.252;2022-12-18T10:58:46;18.05;;;11.20;;
20619;SDS011;10469;42.720;23.252;2022-12-18T11:01:21;28.45;;;13.52;;
20619;SDS011;10469;42.720;23.252;2022-12-18T11:06:16;22.90;;;12.43;;
20619;SDS011;10469;42.720;23.252;2022-12-18T11:08:58;24.73;;;14.13;;
20619;SDS011;10469;42.720;23.252;2022-12-18T11:11:50;22.65;;;13.85;;
20619;SDS011;10469;42.720;23.252;2022-12-18T11:14:22;22.40;;;13.40;;
20619;SDS011;10469;42.720;23.252;2022-12-18T11:16:50;23.58;;;13.65;;
20619;SDS011;10469;42.720;23.252;2022-12-18T11:21:51;20.48;;;12.93;;
20619;SDS011;10469;42.720;23.252;2022-12-18T11:24:21;24.63;;;13.35;;
20619;SDS011;10469;42.720;23.252;2022-12-18T11:26:53;26.60;;;14.07;;
20619;SDS011;10469;42.720;23.252;2022-12-18T11:29:22;22.80;;;12.75;;
20619;SDS011;10469;42.720;23.252;2022-12-18T11:34:37;21.30;;;12.77;;
20619;SDS011;10469;42.720;23.252;2022-12-18T11:37:03;19.75;;;11.85;;
20619;SDS011;10469;42.720;23.252;2022-12-18T11:47:49;30.10;;;13.43;;
20619;SDS011;10469;42.720;23.252;2022-12-18T11:50:23;24.98;;;12.98;;
20619;SDS011;10469;42.720;23.252;2022-12-18T11:52:55;27.52;;;13.85;;
20619;SDS011;10469;42.720;23.252;2022-12-18T12:00:36;21.08;;;13.55;;
20619;SDS011;10469;42.720;23.252;2022-12-18T12:05:57;21.55;;;13.30;;
20619;SDS011;10469;42.720;23.252;2022-12-18T12:08:49;23.15;;;13.75;;
20619;SDS011;10469;42.720;23.252;2022-12-18T12:11:28;24.10;;;14.13;;
20619;SDS011;10469;42.720;23.252;2022-12-18T12:33:40;23.45;;;14.18;;
20619;SDS011;10469;42.720;23.252;2022-12-18T12:38:54;24.88;;;14.77;;
20619;SDS011;10469;42.720;23.252;2022-12-18T12:41:24;35.33;;;14.23;;
20619;SDS011;10469;42.720;23.252;2022-12-18T12:44:16;25.73;;;14.40;;
20619;SDS011;10469;42.720;23.252;2022-12-18T12:46:46;24.52;;;13.43;;
20619;SDS011;10469;42.720;23.252;2022-12-18T12:49:15;23.20;;;14.63;;
20619;SDS011;10469;42.720;23.252;2022-12-18T12:51:45;19.73;;;12.68;;
20619;SDS011;10469;42.720;23.252;2022-12-18T12:54:18;29.50;;;13.85;;
20619;SDS011;10469;42.720;23.252;2022-12-18T12:59:47;22.98;;;13.82;;
20619;SDS011;10469;42.720;23.252;2022-12-18T13:02:22;26.70;;;15.07;;
20619;SDS011;10469;42.720;23.252;2022-12-18T13:07:57;20.77;;;13.02;;
20619;SDS011;10469;42.720;23.252;2022-12-18T13:10:31;24.10;;;15.00;;
20619;SDS011;10469;42.720;23.252;2022-12-18T13:15:48;22.80;;;13.95;;
20619;SDS011;10469;42.720;23.252;2022-12-18T13:18:28;25.20;;;14.55;;
20619;SDS011;10469;42.720;23.252;2022-12-18T13:25:48;24.50;;;14.68;;
20619;SDS011;10469;42.720;23.252;2022-12-18T13:28:48;23.80;;;14.43;;
20619;SDS011;10469;42.720;23.252;2022-12-18T13:31:15;21.23;;;13.07;;
20619;SDS011;10469;42.720;23.252;2022-12-18T13:36:43;26.27;;;14.80;;
20619;SDS011;10469;42.720;23.252;2022-12-18T13:41:47;26.48;;;13.90;;
20619;SDS011;10469;42.720;23.252;2022-12-18T13:47:03;21.58;;;12.98;;
20619;SDS011;10469;42.720;23.252;2022-12-18T13:49:37;22.27;;;13.48;;
20619;SDS011;10469;42.720;23.252;2022-12-18T13:52:16;20.02;;;12.48;;
20619;SDS011;10469;42.720;23.252;2022-12-18T13:54:45;22.52;;;13.75;;
20619;SDS011;10469;42.720;23.252;2022-12-18T13:57:31;21.80;;;12.68;;
20619;SDS011;10469;42.720;23.252;2022-12-18T14:02:44;20.17;;;12.63;;
20619;SDS011;10469;42.720;23.252;2022-12-18T14:05:21;25.23;;;12.55;;
20619;SDS011;10469;42.720;23.252;2022-12-18T14:07:55;20.92;;;12.07;;
20619;SDS011;10469;42.720;23.252;2022-12-18T14:10:26;21.15;;;11.98;;
20619;SDS011;10469;42.720;23.252;2022-12-18T14:12:52;26.95;;;12.77;;
20619;SDS011;10469;42.720;23.252;2022-12-18T14:18:02;18.85;;;12.13;;
20619;SDS011;10469;42.720;23.252;2022-12-18T14:20:41;19.55;;;11.85;;
20619;SDS011;10469;42.720;23.252;2022-12-18T14:23:31;22.08;;;12.32;;
20619;SDS011;10469;42.720;23.252;2022-12-18T14:26:02;18.73;;;11.35;;
20619;SDS011;10469;42.720;23.252;2022-12-18T14:28:44;21.00;;;11.43;;
20619;SDS011;10469;42.720;23.252;2022-12-18T14:31:21;19.67;;;11.15;;
20619;SDS011;10469;42.720;23.252;2022-12-18T14:33:51;18.40;;;11.38;;
20619;SDS011;10469;42.720;23.252;2022-12-18T14:36:19;22.85;;;12.52;;
20619;SDS011;10469;42.720;23.252;2022-12-18T14:38:50;18.63;;;11.35;;
20619;SDS011;10469;42.720;23.252;2022-12-18T14:41:19;20.65;;;11.82;;
20619;SDS011;10469;42.720;23.252;2022-12-18T14:43:47;18.27;;;10.10;;
20619;SDS011;10469;42.720;23.252;2022-12-18T14:49:14;23.05;;;12.32;;
20619;SDS011;10469;42.720;23.252;2022-12-18T14:51:55;19.65;;;10.90;;
20619;SDS011;10469;42.720;23.252;2022-12-18T14:54:40;25.00;;;10.77;;
20619;SDS011;10469;42.720;23.252;2022-12-18T14:57:20;16.20;;;10.20;;
20619;SDS011;10469;42.720;23.252;2022-12-18T14:59:49;19.67;;;11.63;;
20619;SDS011;10469;42.720;23.252;2022-12-18T15:02:24;18.15;;;10.05;;
20619;SDS011;10469;42.720;23.252;2022-12-18T15:05:01;17.50;;;10.18;;
20619;SDS011;10469;42.720;23.252;2022-12-18T15:07:46;21.30;;;11.27;;
20619;SDS011;10469;42.720;23.252;2022-12-18T15:13:15;20.52;;;11.30;;
20619;SDS011;10469;42.720;23.252;2022-12-18T15:15:44;16.73;;;10.50;;
20619;SDS011;10469;42.720;23.252;2022-12-18T15:18:13;16.77;;;10.40;;
20619;SDS011;10469;42.720;23.252;2022-12-18T15:23:51;19.13;;;11.48;;
20619;SDS011;10469;42.720;23.252;2022-12-18T15:26:18;22.30;;;10.55;;
20619;SDS011;10469;42.720;23.252;2022-12-18T15:28:49;22.55;;;12.13;;
20619;SDS011;10469;42.720;23.252;2022-12-18T15:36:14;21.65;;;12.02;;
20619;SDS011;10469;42.720;23.252;2022-12-18T15:38:41;21.48;;;12.77;;
20619;SDS011;10469;42.720;23.252;2022-12-18T15:41:12;22.58;;;12.25;;
20619;SDS011;10469;42.720;23.252;2022-12-18T15:43:39;21.42;;;13.45;;
20619;SDS011;10469;42.720;23.252;2022-12-18T15:48:59;22.42;;;12.52;;
20619;SDS011;10469;42.720;23.252;2022-12-18T15:51:26;24.83;;;12.82;;
20619;SDS011;10469;42.720;23.252;2022-12-18T15:53:55;22.38;;;13.10;;
20619;SDS011;10469;42.720;23.252;2022-12-18T15:56:23;23.73;;;13.93;;
20619;SDS011;10469;42.720;23.252;2022-12-18T15:59:11;25.13;;;13.48;;
20619;SDS011;10469;42.720;23.252;2022-12-18T16:01:42;22.83;;;13.40;;
20619;SDS011;10469;42.720;23.252;2022-12-18T16:04:13;26.38;;;14.50;;
20619;SDS011;10469;42.720;23.252;2022-12-18T16:06:40;22.65;;;12.85;;
20619;SDS011;10469;42.720;23.252;2022-12-18T16:09:06;26.65;;;14.02;;
20619;SDS011;10469;42.720;23.252;2022-12-18T16:11:32;25.73;;;14.32;;
20619;SDS011;10469;42.720;23.252;2022-12-18T16:14:08;25.60;;;14.27;;
20619;SDS011;10469;42.720;23.252;2022-12-18T16:16:37;23.52;;;12.82;;
20619;SDS011;10469;42.720;23.252;2022-12-18T16:19:02;24.23;;;14.45;;
20619;SDS011;10469;42.720;23.252;2022-12-18T16:21:27;26.50;;;14.80;;
20619;SDS011;10469;42.720;23.252;2022-12-18T16:23:53;25.77;;;14.57;;
20619;SDS011;10469;42.720;23.252;2022-12-18T16:26:18;24.30;;;13.85;;
20619;SDS011;10469;42.720;23.252;2022-12-18T16:28:44;23.85;;;13.23;;
20619;SDS011;10469;42.720;23.252;2022-12-18T16:31:10;25.48;;;14.30;;
20619;SDS011;10469;42.720;23.252;2022-12-18T16:33:36;28.00;;;13.98;;
20619;SDS011;10469;42.720;23.252;2022-12-18T16:36:01;24.60;;;14.88;;
20619;SDS011;10469;42.720;23.252;2022-12-18T16:38:27;23.77;;;14.18;;
20619;SDS011;10469;42.720;23.252;2022-12-18T16:40:52;27.05;;;14.80;;
20619;SDS011;10469;42.720;23.252;2022-12-18T16:43:36;25.45;;;15.43;;
20619;SDS011;10469;42.720;23.252;2022-12-18T16:46:02;25.75;;;14.38;;
20619;SDS011;10469;42.720;23.252;2022-12-18T16:48:27;27.85;;;15.00;;
20619;SDS011;10469;42.720;23.252;2022-12-18T16:50:59;24.05;;;14.65;;
20619;SDS011;10469;42.720;23.252;2022-12-18T16:53:30;25.33;;;14.20;;
20619;SDS011;10469;42.720;23.252;2022-12-18T16:55:57;26.90;;;14.25;;
20619;SDS011;10469;42.720;23.252;2022-12-18T16:58:22;20.40;;;13.25;;
20619;SDS011;10469;42.720;23.252;2022-12-18T17:00:48;23.05;;;14.63;;
20619;SDS011;10469;42.720;23.252;2022-12-18T17:03:13;25.13;;;14.70;;
20619;SDS011;10469;42.720;23.252;2022-12-18T17:05:39;24.92;;;14.77;;
20619;SDS011;10469;42.720;23.252;2022-12-18T17:08:04;28.58;;;14.48;;
20619;SDS011;10469;42.720;23.252;2022-12-18T17:10:30;24.63;;;15.30;;
20619;SDS011;10469;42.720;23.252;2022-12-18T17:12:56;24.30;;;15.32;;
20619;SDS011;10469;42.720;23.252;2022-12-18T17:15:21;25.88;;;14.68;;
20619;SDS011;10469;42.720;23.252;2022-12-18T17:17:47;26.65;;;15.63;;
20619;SDS011;10469;42.720;23.252;2022-12-18T17:20:12;26.73;;;14.77;;
20619;SDS011;10469;42.720;23.252;2022-12-18T17:22:38;24.73;;;15.82;;
20619;SDS011;10469;42.720;23.252;2022-12-18T17:25:03;26.48;;;15.25;;
20619;SDS011;10469;42.720;23.252;2022-12-18T17:27:29;23.25;;;14.60;;
20619;SDS011;10469;42.720;23.252;2022-12-18T17:29:55;26.48;;;15.38;;
20619;SDS011;10469;42.720;23.252;2022-12-18T17:32:20;27.45;;;15.18;;
20619;SDS011;10469;42.720;23.252;2022-12-18T17:34:46;26.67;;;15.50;;
20619;SDS011;10469;42.720;23.252;2022-12-18T17:37:11;25.65;;;15.30;;
20619;SDS011;10469;42.720;23.252;2022-12-18T17:39:37;26.30;;;14.95;;
20619;SDS011;10469;42.720;23.252;2022-12-18T17:42:03;28.15;;;14.57;;
20619;SDS011;10469;42.720;23.252;2022-12-18T17:44:29;24.75;;;14.00;;
20619;SDS011;10469;42.720;23.252;2022-12-18T17:46:54;31.13;;;15.85;;
20619;SDS011;10469;42.720;23.252;2022-12-18T17:49:20;29.60;;;14.40;;
20619;SDS011;10469;42.720;23.252;2022-12-18T17:51:45;28.38;;;15.50;;
20619;SDS011;10469;42.720;23.252;2022-12-18T17:54:11;32.13;;;16.90;;
20619;SDS011;10469;42.720;23.252;2022-12-18T17:56:36;31.40;;;16.65;;
20619;SDS011;10469;42.720;23.252;2022-12-18T17:59:03;24.35;;;14.70;;
20619;SDS011;10469;42.720;23.252;2022-12-18T18:01:28;29.50;;;16.17;;
20619;SDS011;10469;42.720;23.252;2022-12-18T18:03:54;30.45;;;16.75;;
20619;SDS011;10469;42.720;23.252;2022-12-18T18:06:20;29.38;;;16.98;;
20619;SDS011;10469;42.720;23.252;2022-12-18T18:08:47;28.42;;;15.68;;
20619;SDS011;10469;42.720;23.252;2022-12-18T18:11:13;28.05;;;15.77;;
20619;SDS011;10469;42.720;23.252;2022-12-18T18:13:59;26.65;;;17.00;;
20619;SDS011;10469;42.720;23.252;2022-12-18T18:16:36;27.17;;;16.75;;
20619;SDS011;10469;42.720;23.252;2022-12-18T18:19:10;29.50;;;16.65;;
20619;SDS011;10469;42.720;23.252;2022-12-18T18:21:41;28.00;;;16.35;;
20619;SDS011;10469;42.720;23.252;2022-12-18T18:24:08;30.60;;;16.38;;
20619;SDS011;10469;42.720;23.252;2022-12-18T18:26:34;27.85;;;16.30;;
20619;SDS011;10469;42.720;23.252;2022-12-18T18:29:00;27.90;;;16.15;;
20619;SDS011;10469;42.720;23.252;2022-12-18T18:31:27;28.90;;;15.88;;
20619;SDS011;10469;42.720;23.252;2022-12-18T18:33:54;25.27;;;15.80;;
20619;SDS011;10469;42.720;23.252;2022-12-18T18:36:20;25.83;;;15.80;;
20619;SDS011;10469;42.720;23.252;2022-12-18T18:38:47;27.88;;;16.73;;
20619;SDS011;10469;42.720;23.252;2022-12-18T18:41:13;26.77;;;15.82;;
20619;SDS011;10469;42.720;23.252;2022-12-18T18:43:38;27.83;;;16.75;;
20619;SDS011;10469;42.720;23.252;2022-12-18T18:46:04;33.35;;;17.35;;
20619;SDS011;10469;42.720;23.252;2022-12-18T18:48:35;30.33;;;17.20;;
20619;SDS011;10469;42.720;23.252;2022-12-18T18:53:34;28.92;;;17.45;;
20619;SDS011;10469;42.720;23.252;2022-12-18T18:56:05;30.92;;;16.77;;
20619;SDS011;10469;42.720;23.252;2022-12-18T18:58:31;30.45;;;17.50;;
20619;SDS011;10469;42.720;23.252;2022-12-18T19:01:01;28.67;;;17.58;;
20619;SDS011;10469;42.720;23.252;2022-12-18T19:03:31;28.05;;;17.88;;
20619;SDS011;10469;42.720;23.252;2022-12-18T19:05:57;33.03;;;18.38;;
20619;SDS011;10469;42.720;23.252;2022-12-18T19:08:29;30.77;;;17.02;;
20619;SDS011;10469;42.720;23.252;2022-12-18T19:10:57;27.85;;;16.20;;
20619;SDS011;10469;42.720;23.252;2022-12-18T19:13:24;32.25;;;17.17;;
20619;SDS011;10469;42.720;23.252;2022-12-18T19:15:53;29.35;;;16.67;;
20619;SDS011;10469;42.720;23.252;2022-12-18T19:18:26;30.65;;;17.25;;
20619;SDS011;10469;42.720;23.252;2022-12-18T19:20:58;30.95;;;17.15;;
20619;SDS011;10469;42.720;23.252;2022-12-18T19:23:28;27.88;;;16.33;;
20619;SDS011;10469;42.720;23.252;2022-12-18T19:25:54;31.20;;;17.50;;
20619;SDS011;10469;42.720;23.252;2022-12-18T19:28:23;25.15;;;16.17;;
20619;SDS011;10469;42.720;23.252;2022-12-18T19:30:57;27.55;;;16.65;;
20619;SDS011;10469;42.720;23.252;2022-12-18T19:33:25;27.30;;;16.35;;
20619;SDS011;10469;42.720;23.252;2022-12-18T19:35:52;28.13;;;17.25;;